Terminal Aerodrome Forecast
Issued by NWS Bismarck, ND

Home | Current Version | Previous Version | Graphics & Text | Print | Product List | Glossary On
Versions: 1 2 3 4 5 6 7 8 9 10 11 12 13 14 15 16 17 18 19 20 21
000
FTUS43 KBIS 031053 AAB
TAFBIS
TAF AMD
KBIS 031053Z 0311/0406 VRB03KT 2SM FU VV035
      TEMPO 0311/0313 1/2SM FG FU
     FM031500 VRB04KT 5SM FU SKC
     FM040000 14006KT P6SM SCT070=

USA.gov is the U.S. government's official web portal to all federal, state and local government web resources and services.